WZZ394D LROP-LRTR
Flight info
| Callsign | WZZ394D |
|---|---|
| Flight time | N/A |
| Altitude | 26000 |
| Route | SOKR1M/26R SOKRU ENIMA NERDI AGNEP NEKUL NEKU2A/29 |
| Aircraft | A20N/M-VGDW/C |
Departure
| Time | N/A |
|---|---|
| Airport | Bucharest Henri Coandă International Airport (LROP) |
Arrival
| Time | 2026-04-20 18:08 |
|---|---|
| Airport | Timișoara Traian Vuia International Airport (LRTR) |
| Time | Latitude | Longitude | Altitude | Speed | Heading |
|---|---|---|---|---|---|
| 2026-04-20 16:59 | 44.57109 | 26.07947 | 0 ft | 0 kts | 174° |
| 2026-04-20 17:07 | 44.57126 | 26.07945 | 0 ft | 3 kts | 174° |
| 2026-04-20 17:07 | 44.57145 | 26.07942 | 0 ft | 3 kts | 171° |
| 2026-04-20 17:07 | 44.57162 | 26.07928 | 0 ft | 3 kts | 126° |
| 2026-04-20 17:08 | 44.57167 | 26.07902 | 0 ft | 2 kts | 83° |
| 2026-04-20 17:08 | 44.57167 | 26.07898 | 0 ft | 0 kts | 83° |
| 2026-04-20 17:09 | 44.57167 | 26.07904 | 0 ft | 2 kts | 77° |
| 2026-04-20 17:09 | 44.57175 | 26.07939 | 0 ft | 6 kts | 71° |
| 2026-04-20 17:10 | 44.57189 | 26.08014 | 0 ft | 10 kts | 81° |
| 2026-04-20 17:10 | 44.57205 | 26.08168 | 0 ft | 18 kts | 83° |
| 2026-04-20 17:10 | 44.57224 | 26.08345 | 0 ft | 18 kts | 82° |
| 2026-04-20 17:10 | 44.57260 | 26.08494 | 0 ft | 13 kts | 4° |
| 2026-04-20 17:11 | 44.57393 | 26.08476 | 0 ft | 26 kts | 353° |
| 2026-04-20 17:11 | 44.57510 | 26.08652 | 0 ft | 33 kts | 84° |
| 2026-04-20 17:11 | 44.57531 | 26.08968 | 0 ft | 33 kts | 84° |
| 2026-04-20 17:11 | 44.57555 | 26.09295 | 0 ft | 34 kts | 84° |
| 2026-04-20 17:12 | 44.57580 | 26.09630 | 0 ft | 35 kts | 84° |
| 2026-04-20 17:12 | 44.57606 | 26.09975 | 0 ft | 36 kts | 84° |
| 2026-04-20 17:12 | 44.57628 | 26.10283 | 0 ft | 32 kts | 84° |
| 2026-04-20 17:12 | 44.57650 | 26.10587 | 0 ft | 31 kts | 84° |
| 2026-04-20 17:13 | 44.57674 | 26.10887 | 0 ft | 30 kts | 84° |
| 2026-04-20 17:13 | 44.57694 | 26.11179 | 0 ft | 30 kts | 85° |
| 2026-04-20 17:13 | 44.57715 | 26.11462 | 0 ft | 29 kts | 82° |
| 2026-04-20 17:13 | 44.57739 | 26.11740 | 0 ft | 28 kts | 84° |
| 2026-04-20 17:14 | 44.57757 | 26.12016 | 0 ft | 28 kts | 84° |
| 2026-04-20 17:14 | 44.57779 | 26.12286 | 0 ft | 28 kts | 83° |
| 2026-04-20 17:14 | 44.57800 | 26.12553 | 0 ft | 27 kts | 84° |
| 2026-04-20 17:14 | 44.57821 | 26.12805 | 0 ft | 21 kts | 79° |
| 2026-04-20 17:15 | 44.57892 | 26.12848 | 0 ft | 9 kts | 326° |
| 2026-04-20 17:15 | 44.57949 | 26.12794 | 0 ft | 11 kts | 326° |
| 2026-04-20 17:15 | 44.57987 | 26.12737 | 0 ft | 1 kts | 270° |
| 2026-04-20 17:16 | 44.57987 | 26.12729 | 0 ft | 11 kts | 269° |
| 2026-04-20 17:16 | 44.57945 | 26.12161 | 0 ft | 105 kts | 264° |
| 2026-04-20 17:16 | 44.57810 | 26.10752 | 0 ft | 188 kts | 261° |
| 2026-04-20 17:17 | 44.57538 | 26.08735 | 0 ft | 226 kts | 257° |
| 2026-04-20 17:17 | 44.57223 | 26.06454 | 0 ft | 262 kts | 259° |
| 2026-04-20 17:17 | 44.56925 | 26.03632 | 0 ft | 321 kts | 262° |
| 2026-04-20 17:17 | 44.56697 | 26.00292 | 0 ft | 343 kts | 269° |
| 2026-04-20 17:18 | 44.57027 | 25.97258 | 0 ft | 289 kts | 289° |
| 2026-04-20 17:18 | 44.57945 | 25.95059 | 0 ft | 256 kts | 312° |
| 2026-04-20 17:18 | 44.59277 | 25.93342 | 0 ft | 270 kts | 320° |
| 2026-04-20 17:18 | 44.60779 | 25.91778 | 0 ft | 270 kts | 327° |
| 2026-04-20 17:19 | 44.62434 | 25.90474 | 0 ft | 278 kts | 334° |
| 2026-04-20 17:19 | 44.64241 | 25.89448 | 0 ft | 282 kts | 341° |
| 2026-04-20 17:19 | 44.66122 | 25.88655 | 0 ft | 285 kts | 345° |
| 2026-04-20 17:19 | 44.68053 | 25.88023 | 0 ft | 292 kts | 348° |
| 2026-04-20 17:20 | 44.70066 | 25.87486 | 0 ft | 299 kts | 349° |
| 2026-04-20 17:20 | 44.72068 | 25.86567 | 0 ft | 310 kts | 331° |
| 2026-04-20 17:20 | 44.73823 | 25.84727 | 0 ft | 321 kts | 314° |
| 2026-04-20 17:20 | 44.75330 | 25.82337 | 0 ft | 331 kts | 308° |
| 2026-04-20 17:21 | 44.76759 | 25.79719 | 0 ft | 341 kts | 306° |
| 2026-04-20 17:21 | 44.78138 | 25.77036 | 0 ft | 349 kts | 305° |
| 2026-04-20 17:21 | 44.79548 | 25.74213 | 0 ft | 356 kts | 304° |
| 2026-04-20 17:21 | 44.80960 | 25.71338 | 0 ft | 361 kts | 304° |
| 2026-04-20 17:22 | 44.82394 | 25.68388 | 0 ft | 365 kts | 304° |
| 2026-04-20 17:22 | 44.83824 | 25.65425 | 0 ft | 368 kts | 303° |
| 2026-04-20 17:22 | 44.85263 | 25.62428 | 0 ft | 369 kts | 303° |
| 2026-04-20 17:22 | 44.86704 | 25.59419 | 0 ft | 370 kts | 303° |
| 2026-04-20 17:23 | 44.88136 | 25.56420 | 0 ft | 371 kts | 303° |
| 2026-04-20 17:23 | 44.89609 | 25.53327 | 0 ft | 390 kts | 303° |
| 2026-04-20 17:23 | 44.91160 | 25.50057 | 0 ft | 412 kts | 303° |
| 2026-04-20 17:23 | 44.92774 | 25.46644 | 0 ft | 435 kts | 303° |
| 2026-04-20 17:24 | 44.94508 | 25.42971 | 0 ft | 460 kts | 303° |
| 2026-04-20 17:24 | 44.96330 | 25.39117 | 0 ft | 484 kts | 303° |
| 2026-04-20 17:24 | 44.98047 | 25.34954 | 0 ft | 494 kts | 295° |
| 2026-04-20 17:24 | 44.99318 | 25.30520 | 0 ft | 490 kts | 289° |
| 2026-04-20 17:25 | 45.00384 | 25.25933 | 0 ft | 492 kts | 287° |
| 2026-04-20 17:25 | 45.01360 | 25.21300 | 0 ft | 493 kts | 286° |
| 2026-04-20 17:25 | 45.02308 | 25.16645 | 0 ft | 491 kts | 285° |
| 2026-04-20 17:25 | 45.03249 | 25.12013 | 0 ft | 491 kts | 285° |
| 2026-04-20 17:26 | 45.04202 | 25.07363 | 0 ft | 493 kts | 286° |
| 2026-04-20 17:26 | 45.05170 | 25.02718 | 0 ft | 492 kts | 286° |
| 2026-04-20 17:26 | 45.06140 | 24.98151 | 0 ft | 491 kts | 287° |
| 2026-04-20 17:26 | 45.07120 | 24.93509 | 0 ft | 492 kts | 285° |
| 2026-04-20 17:27 | 45.08050 | 24.88841 | 0 ft | 492 kts | 285° |
| 2026-04-20 17:27 | 45.08958 | 24.84191 | 0 ft | 492 kts | 285° |
| 2026-04-20 17:27 | 45.09868 | 24.79511 | 0 ft | 491 kts | 285° |
| 2026-04-20 17:27 | 45.10770 | 24.74892 | 0 ft | 492 kts | 285° |
| 2026-04-20 17:28 | 45.11687 | 24.70220 | 0 ft | 492 kts | 285° |
| 2026-04-20 17:28 | 45.12606 | 24.65556 | 0 ft | 492 kts | 285° |
| 2026-04-20 17:28 | 45.13631 | 24.60952 | 0 ft | 491 kts | 292° |
| 2026-04-20 17:28 | 45.15196 | 24.56643 | 0 ft | 492 kts | 297° |
| 2026-04-20 17:29 | 45.16483 | 24.52168 | 0 ft | 492 kts | 287° |
| 2026-04-20 17:29 | 45.17377 | 24.47480 | 0 ft | 492 kts | 283° |
| 2026-04-20 17:29 | 45.18126 | 24.42760 | 0 ft | 491 kts | 282° |
| 2026-04-20 17:29 | 45.18845 | 24.38030 | 0 ft | 491 kts | 282° |
| 2026-04-20 17:30 | 45.19578 | 24.33305 | 0 ft | 492 kts | 282° |
| 2026-04-20 17:30 | 45.20341 | 24.28576 | 0 ft | 492 kts | 283° |
| 2026-04-20 17:30 | 45.21124 | 24.23922 | 0 ft | 491 kts | 283° |
| 2026-04-20 17:30 | 45.21942 | 24.19226 | 0 ft | 491 kts | 284° |
| 2026-04-20 17:31 | 45.22790 | 24.14503 | 0 ft | 492 kts | 284° |
| 2026-04-20 17:31 | 45.23650 | 24.09821 | 0 ft | 492 kts | 284° |
| 2026-04-20 17:31 | 45.24525 | 24.05140 | 0 ft | 491 kts | 284° |
| 2026-04-20 17:31 | 45.25412 | 24.00453 | 0 ft | 491 kts | 285° |
| 2026-04-20 17:32 | 45.26311 | 23.95752 | 0 ft | 492 kts | 285° |
| 2026-04-20 17:32 | 45.27199 | 23.91135 | 0 ft | 492 kts | 285° |
| 2026-04-20 17:32 | 45.28108 | 23.86436 | 0 ft | 491 kts | 285° |
| 2026-04-20 17:32 | 45.29019 | 23.81746 | 0 ft | 491 kts | 285° |
| 2026-04-20 17:33 | 45.29923 | 23.77108 | 0 ft | 492 kts | 285° |
| 2026-04-20 17:33 | 45.30821 | 23.72427 | 0 ft | 492 kts | 284° |
| 2026-04-20 17:33 | 45.31702 | 23.67741 | 0 ft | 491 kts | 284° |
| 2026-04-20 17:33 | 45.32579 | 23.63036 | 0 ft | 491 kts | 284° |
| 2026-04-20 17:34 | 45.33454 | 23.58333 | 0 ft | 492 kts | 284° |
| 2026-04-20 17:34 | 45.34325 | 23.53652 | 0 ft | 492 kts | 284° |
| 2026-04-20 17:34 | 45.35201 | 23.48946 | 0 ft | 491 kts | 284° |
| 2026-04-20 17:34 | 45.36073 | 23.44256 | 0 ft | 491 kts | 284° |
| 2026-04-20 17:35 | 45.36939 | 23.39601 | 0 ft | 492 kts | 284° |
| 2026-04-20 17:35 | 45.37823 | 23.34846 | 0 ft | 492 kts | 284° |
| 2026-04-20 17:35 | 45.38687 | 23.30191 | 0 ft | 491 kts | 284° |
| 2026-04-20 17:35 | 45.39562 | 23.25469 | 0 ft | 491 kts | 284° |
| 2026-04-20 17:36 | 45.40435 | 23.20754 | 0 ft | 492 kts | 284° |
| 2026-04-20 17:36 | 45.41302 | 23.16061 | 0 ft | 492 kts | 284° |
| 2026-04-20 17:36 | 45.42163 | 23.11391 | 0 ft | 491 kts | 284° |
| 2026-04-20 17:36 | 45.43028 | 23.06685 | 0 ft | 491 kts | 284° |
| 2026-04-20 17:37 | 45.43894 | 23.01969 | 0 ft | 492 kts | 284° |
| 2026-04-20 17:37 | 45.44743 | 22.97304 | 0 ft | 492 kts | 284° |
| 2026-04-20 17:37 | 45.45594 | 22.92589 | 0 ft | 491 kts | 284° |
| 2026-04-20 17:37 | 45.46444 | 22.87865 | 0 ft | 491 kts | 284° |
| 2026-04-20 17:38 | 45.47291 | 22.83143 | 0 ft | 492 kts | 284° |
| 2026-04-20 17:38 | 45.48137 | 22.78418 | 0 ft | 491 kts | 284° |
| 2026-04-20 17:38 | 45.48981 | 22.73698 | 0 ft | 491 kts | 284° |
| 2026-04-20 17:38 | 45.49824 | 22.68979 | 0 ft | 491 kts | 284° |
| 2026-04-20 17:39 | 45.50664 | 22.64309 | 0 ft | 492 kts | 285° |
| 2026-04-20 17:39 | 45.51924 | 22.59787 | 0 ft | 492 kts | 297° |
| 2026-04-20 17:39 | 45.53805 | 22.55717 | 0 ft | 492 kts | 308° |
| 2026-04-20 17:39 | 45.56031 | 22.51991 | 0 ft | 493 kts | 312° |
| 2026-04-20 17:40 | 45.58367 | 22.48419 | 0 ft | 494 kts | 313° |
| 2026-04-20 17:40 | 45.60729 | 22.44895 | 0 ft | 491 kts | 313° |
| 2026-04-20 17:40 | 45.63082 | 22.41370 | 0 ft | 494 kts | 313° |
| 2026-04-20 17:40 | 45.65384 | 22.37872 | 0 ft | 471 kts | 313° |
| 2026-04-20 17:41 | 45.67559 | 22.34508 | 0 ft | 447 kts | 312° |
| 2026-04-20 17:41 | 45.69593 | 22.31303 | 0 ft | 427 kts | 311° |
| 2026-04-20 17:41 | 45.71519 | 22.28219 | 0 ft | 413 kts | 311° |
| 2026-04-20 17:41 | 45.73418 | 22.25144 | 0 ft | 399 kts | 311° |
| 2026-04-20 17:42 | 45.75196 | 22.22239 | 0 ft | 385 kts | 310° |
| 2026-04-20 17:42 | 45.76922 | 22.19403 | 0 ft | 373 kts | 310° |
| 2026-04-20 17:42 | 45.78598 | 22.16636 | 0 ft | 361 kts | 310° |
| 2026-04-20 17:42 | 45.80220 | 22.13944 | 0 ft | 351 kts | 308° |
| 2026-04-20 17:43 | 45.81589 | 22.11100 | 0 ft | 344 kts | 300° |
| 2026-04-20 17:43 | 45.82718 | 22.08128 | 0 ft | 339 kts | 296° |
| 2026-04-20 17:43 | 45.83728 | 22.05092 | 0 ft | 334 kts | 294° |
| 2026-04-20 17:43 | 45.84657 | 22.02056 | 0 ft | 330 kts | 292° |
| 2026-04-20 17:44 | 45.85534 | 21.99022 | 0 ft | 326 kts | 291° |
| 2026-04-20 17:44 | 45.86367 | 21.96022 | 0 ft | 323 kts | 291° |
| 2026-04-20 17:44 | 45.87165 | 21.93067 | 0 ft | 320 kts | 290° |
| 2026-04-20 17:44 | 45.87956 | 21.90050 | 0 ft | 321 kts | 290° |
| 2026-04-20 17:45 | 45.88731 | 21.87046 | 0 ft | 328 kts | 290° |
| 2026-04-20 17:45 | 45.89525 | 21.83951 | 0 ft | 335 kts | 290° |
| 2026-04-20 17:45 | 45.90324 | 21.80799 | 0 ft | 329 kts | 288° |
| 2026-04-20 17:45 | 45.90971 | 21.77786 | 0 ft | 303 kts | 285° |
| 2026-04-20 17:46 | 45.91514 | 21.74971 | 0 ft | 286 kts | 284° |
| 2026-04-20 17:46 | 45.92015 | 21.72232 | 0 ft | 289 kts | 284° |
| 2026-04-20 17:46 | 45.92349 | 21.70337 | 0 ft | 288 kts | 283° |
| 2026-04-20 17:46 | 45.92977 | 21.66650 | 0 ft | 287 kts | 283° |
| 2026-04-20 17:47 | 45.93283 | 21.64804 | 0 ft | 288 kts | 283° |
| 2026-04-20 17:47 | 45.93890 | 21.61072 | 0 ft | 287 kts | 282° |
| 2026-04-20 17:48 | 45.95124 | 21.53282 | 0 ft | 287 kts | 282° |
| 2026-04-20 17:48 | 45.95560 | 21.50491 | 0 ft | 286 kts | 282° |
| 2026-04-20 17:48 | 45.95994 | 21.47693 | 0 ft | 287 kts | 282° |
| 2026-04-20 17:48 | 45.96420 | 21.44938 | 0 ft | 283 kts | 282° |
| 2026-04-20 17:49 | 45.96853 | 21.42123 | 0 ft | 292 kts | 282° |
| 2026-04-20 17:49 | 45.97287 | 21.39301 | 0 ft | 289 kts | 282° |
| 2026-04-20 17:49 | 45.97696 | 21.36487 | 0 ft | 286 kts | 278° |
| 2026-04-20 17:49 | 45.97881 | 21.33646 | 0 ft | 284 kts | 267° |
| 2026-04-20 17:50 | 45.97594 | 21.30850 | 0 ft | 282 kts | 254° |
| 2026-04-20 17:50 | 45.97413 | 21.29976 | 0 ft | 281 kts | 249° |
| 2026-04-20 17:50 | 45.94372 | 21.24340 | 0 ft | 276 kts | 214° |
| 2026-04-20 17:51 | 45.92499 | 21.22988 | 0 ft | 274 kts | 198° |
| 2026-04-20 17:51 | 45.90639 | 21.22404 | 0 ft | 273 kts | 184° |
| 2026-04-20 17:51 | 45.88758 | 21.22499 | 0 ft | 272 kts | 172° |
| 2026-04-20 17:51 | 45.86949 | 21.23225 | 0 ft | 270 kts | 156° |
| 2026-04-20 17:52 | 45.85341 | 21.24479 | 0 ft | 254 kts | 143° |
| 2026-04-20 17:52 | 45.83185 | 21.27890 | 0 ft | 264 kts | 115° |
| 2026-04-20 17:52 | 45.82641 | 21.30413 | 0 ft | 268 kts | 101° |
| 2026-04-20 17:53 | 45.82362 | 21.33058 | 0 ft | 267 kts | 97° |
| 2026-04-20 17:53 | 45.82139 | 21.35705 | 0 ft | 267 kts | 97° |
| 2026-04-20 17:53 | 45.81928 | 21.38323 | 0 ft | 269 kts | 97° |
| 2026-04-20 17:53 | 45.81713 | 21.41020 | 0 ft | 271 kts | 97° |
| 2026-04-20 17:54 | 45.81499 | 21.43702 | 0 ft | 270 kts | 97° |
| 2026-04-20 17:54 | 45.81282 | 21.46369 | 0 ft | 268 kts | 97° |
| 2026-04-20 17:54 | 45.81068 | 21.48982 | 0 ft | 266 kts | 96° |
| 2026-04-20 17:54 | 45.80881 | 21.51625 | 0 ft | 265 kts | 96° |
| 2026-04-20 17:55 | 45.80714 | 21.54246 | 0 ft | 262 kts | 93° |
| 2026-04-20 17:55 | 45.80949 | 21.56795 | 0 ft | 259 kts | 69° |
| 2026-04-20 17:55 | 45.81850 | 21.58977 | 0 ft | 255 kts | 46° |
| 2026-04-20 17:55 | 45.83270 | 21.60458 | 0 ft | 252 kts | 22° |
| 2026-04-20 17:56 | 45.84934 | 21.61065 | 0 ft | 250 kts | 7° |
| 2026-04-20 17:56 | 45.86666 | 21.61321 | 0 ft | 251 kts | 4° |
| 2026-04-20 17:56 | 45.88394 | 21.61264 | 0 ft | 249 kts | 345° |
| 2026-04-20 17:56 | 45.89947 | 21.60254 | 0 ft | 244 kts | 320° |
| 2026-04-20 17:57 | 45.91021 | 21.58415 | 0 ft | 244 kts | 295° |
| 2026-04-20 17:57 | 45.91510 | 21.56077 | 0 ft | 244 kts | 277° |
| 2026-04-20 17:57 | 45.91746 | 21.53675 | 0 ft | 245 kts | 277° |
| 2026-04-20 17:57 | 45.91998 | 21.51241 | 0 ft | 245 kts | 278° |
| 2026-04-20 17:58 | 45.92251 | 21.48829 | 0 ft | 245 kts | 278° |
| 2026-04-20 17:58 | 45.92504 | 21.46430 | 0 ft | 246 kts | 278° |
| 2026-04-20 17:58 | 45.92759 | 21.44012 | 0 ft | 245 kts | 278° |
| 2026-04-20 17:58 | 45.93017 | 21.41586 | 0 ft | 246 kts | 278° |
| 2026-04-20 17:59 | 45.93182 | 21.39144 | 0 ft | 244 kts | 264° |
| 2026-04-20 17:59 | 45.92718 | 21.36809 | 0 ft | 245 kts | 240° |
| 2026-04-20 17:59 | 45.91634 | 21.34966 | 0 ft | 244 kts | 216° |
| 2026-04-20 17:59 | 45.90124 | 21.33923 | 0 ft | 245 kts | 192° |
| 2026-04-20 18:00 | 45.88445 | 21.33578 | 0 ft | 245 kts | 185° |
| 2026-04-20 18:00 | 45.86729 | 21.33398 | 0 ft | 248 kts | 182° |
| 2026-04-20 18:00 | 45.85035 | 21.33745 | 0 ft | 248 kts | 158° |
| 2026-04-20 18:00 | 45.83648 | 21.35048 | 0 ft | 233 kts | 132° |
| 2026-04-20 18:01 | 45.82751 | 21.36872 | 0 ft | 222 kts | 121° |
| 2026-04-20 18:01 | 45.81999 | 21.38786 | 0 ft | 217 kts | 119° |
| 2026-04-20 18:01 | 45.81305 | 21.40586 | 0 ft | 203 kts | 119° |
| 2026-04-20 18:01 | 45.80629 | 21.42331 | 0 ft | 198 kts | 120° |
| 2026-04-20 18:02 | 45.79958 | 21.44048 | 0 ft | 197 kts | 120° |
| 2026-04-20 18:02 | 45.79296 | 21.45726 | 0 ft | 184 kts | 120° |
| 2026-04-20 18:02 | 45.78676 | 21.47286 | 0 ft | 187 kts | 120° |
| 2026-04-20 18:02 | 45.78025 | 21.48907 | 0 ft | 187 kts | 121° |
| 2026-04-20 18:03 | 45.77364 | 21.50539 | 0 ft | 190 kts | 121° |
| 2026-04-20 18:03 | 45.76695 | 21.52172 | 0 ft | 189 kts | 122° |
| 2026-04-20 18:03 | 45.75770 | 21.53491 | 0 ft | 192 kts | 152° |
| 2026-04-20 18:03 | 45.74530 | 21.53951 | 0 ft | 177 kts | 184° |
| 2026-04-20 18:04 | 45.73450 | 21.53409 | 0 ft | 159 kts | 221° |
| 2026-04-20 18:04 | 45.72867 | 21.52110 | 0 ft | 157 kts | 259° |
| 2026-04-20 18:04 | 45.72976 | 21.50613 | 0 ft | 157 kts | 297° |
| 2026-04-20 18:04 | 45.73725 | 21.49512 | 0 ft | 158 kts | 333° |
| 2026-04-20 18:05 | 45.75709 | 21.48106 | 0 ft | 159 kts | 333° |
| 2026-04-20 18:05 | 45.76698 | 21.47413 | 0 ft | 159 kts | 329° |
| 2026-04-20 18:05 | 45.77446 | 21.46289 | 0 ft | 157 kts | 299° |
| 2026-04-20 18:06 | 45.77971 | 21.44920 | 0 ft | 157 kts | 297° |
| 2026-04-20 18:06 | 45.78457 | 21.43544 | 0 ft | 156 kts | 292° |
| 2026-04-20 18:06 | 45.78855 | 21.42114 | 0 ft | 155 kts | 289° |
| 2026-04-20 18:06 | 45.79229 | 21.40673 | 0 ft | 154 kts | 289° |
| 2026-04-20 18:07 | 45.79597 | 21.39235 | 0 ft | 154 kts | 289° |
| 2026-04-20 18:07 | 45.79965 | 21.37789 | 0 ft | 154 kts | 289° |
| 2026-04-20 18:07 | 45.80328 | 21.36350 | 0 ft | 154 kts | 289° |
| 2026-04-20 18:07 | 45.80684 | 21.34918 | 0 ft | 138 kts | 290° |
| 2026-04-20 18:08 | 45.80886 | 21.34155 | 0 ft | 27 kts | 290° |
| 2026-04-20 18:08 | 45.80918 | 21.34029 | 0 ft | 11 kts | 290° |
| 2026-04-20 18:08 | 45.80936 | 21.33961 | 0 ft | 11 kts | 290° |
| 2026-04-20 18:08 | 45.80970 | 21.33829 | 0 ft | 12 kts | 290° |
| 2026-04-20 18:09 | 45.81005 | 21.33697 | 0 ft | 18 kts | 290° |
| 2026-04-20 18:09 | 45.81062 | 21.33472 | 0 ft | 31 kts | 289° |
| 2026-04-20 18:09 | 45.81150 | 21.33098 | 0 ft | 47 kts | 288° |
| 2026-04-20 18:09 | 45.81277 | 21.32594 | 0 ft | 59 kts | 290° |
| 2026-04-20 18:10 | 45.81353 | 21.32070 | 0 ft | 28 kts | 218° |
| 2026-04-20 18:10 | 45.81270 | 21.32094 | 0 ft | 0 kts | 181° |
| 2026-04-20 18:10 | 45.81264 | 21.32094 | 0 ft | 1 kts | 181° |
| 2026-04-20 18:10 | 45.81252 | 21.32093 | 0 ft | 2 kts | 186° |
| 2026-04-20 18:11 | 45.81239 | 21.32090 | 0 ft | 3 kts | 191° |
| 2026-04-20 18:11 | 45.81203 | 21.32077 | 0 ft | 8 kts | 194° |
| 2026-04-20 18:11 | 45.81143 | 21.32078 | 0 ft | 8 kts | 148° |
| 2026-04-20 18:11 | 45.81132 | 21.32091 | 0 ft | 6 kts | 135° |
| 2026-04-20 18:12 | 45.81093 | 21.32195 | 0 ft | 3 kts | 134° |
| 2026-04-20 18:12 | 45.81086 | 21.32198 | 0 ft | 1 kts | 184° |
| 2026-04-20 18:12 | 45.81072 | 21.32194 | 0 ft | 0 kts | 194° |